< < Back
Terminal Aerodrome Forecast


Current Version              Previous Versions:   1  2  3  4  5  6  7  8  9  

Terminal Aerodrome Forecast

065
FTUS42 KMLB 111720
TAFDAB
TAF
KDAB 111720Z 1118/1218 22005KT P6SM SKC
     FM112200 VRB04KT P6SM SKC
     FM121500 23010KT P6SM SKC=



Latest METAR

612
SAUS80 KWBC 112100
MTRDAB
METAR KDAB 112053Z 12007KT 10SM CLR 17/03 A3023 RMK AO2 SLP234 T01720033
55017 $


USA.gov is the U.S. government's official web portal to all federal, state and local government web resources and services.